Time,TemperatureF,DewpointF,PressureIn,WindDirection,WindDirectionDegrees,WindSpeedMPH,WindSpeedGustMPH,Humidity,HourlyPrecipIn,Conditions,Clouds,dailyrainin,SoftwareType,DateUTC
2013-02-10 00:01:00,12.0,7.0,30.06,West,270,11.0,23.0,81,-99.99,,,0.00,,2013-02-10 05:01:00,
2013-02-10 01:42:00,12.0,8.0,30.06,WSW,247,15.0,22.0,83,-99.99,,,0.00,,2013-02-10 06:42:00,
2013-02-10 01:52:00,12.0,8.0,30.06,WSW,247,15.0,22.0,83,-99.99,,,0.00,,2013-02-10 06:52:00,
2013-02-10 02:01:00,12.0,8.0,30.06,WSW,247,15.0,22.0,83,-99.99,,,0.00,,2013-02-10 07:01:00,
2013-02-10 02:42:00,11.0,7.0,30.07,WSW,247,10.0,22.0,82,-99.99,,,0.00,,2013-02-10 07:42:00,
2013-02-10 02:52:00,11.0,7.0,30.07,WSW,247,10.0,22.0,82,-99.99,,,0.00,,2013-02-10 07:52:00,
2013-02-10 03:01:00,11.0,7.0,30.07,WSW,247,10.0,22.0,82,-99.99,,,0.00,,2013-02-10 08:01:00,
2013-02-10 03:43:00,10.0,6.0,30.08,WSW,247,7.0,20.0,84,-99.99,,,0.00,,2013-02-10 08:43:00,
2013-02-10 03:52:00,10.0,6.0,30.08,WSW,247,7.0,20.0,84,-99.99,,,0.00,,2013-02-10 08:52:00,
2013-02-10 04:02:00,10.0,6.0,30.08,WSW,247,7.0,20.0,84,-99.99,,,0.00,,2013-02-10 09:02:00,
2013-02-10 04:42:00,10.0,6.0,30.09,WSW,247,15.0,26.0,84,-99.99,,,0.00,,2013-02-10 09:42:00,
2013-02-10 04:52:00,10.0,6.0,30.09,WSW,247,15.0,26.0,84,-99.99,,,0.00,,2013-02-10 09:52:00,
2013-02-10 05:01:00,10.0,6.0,30.09,WSW,247,15.0,26.0,84,-99.99,,,0.00,,2013-02-10 10:01:00,
2013-02-10 05:42:00,9.0,7.0,30.09,WSW,247,12.0,33.0,90,-99.99,,,0.00,,2013-02-10 10:42:00,
2013-02-10 05:52:00,9.0,7.0,30.09,WSW,247,12.0,33.0,90,-99.99,,,0.00,,2013-02-10 10:52:00,
2013-02-10 06:01:00,9.0,7.0,30.09,WSW,247,12.0,33.0,90,-99.99,,,0.00,,2013-02-10 11:01:00,
2013-02-10 06:42:00,8.0,7.0,30.11,WSW,247,10.0,24.0,94,-99.99,,,0.00,,2013-02-10 11:42:00,
2013-02-10 06:52:00,8.0,7.0,30.11,WSW,247,10.0,24.0,94,-99.99,,,0.00,,2013-02-10 11:52:00,
2013-02-10 07:02:00,8.0,7.0,30.11,WSW,247,10.0,24.0,94,-99.99,,,0.00,,2013-02-10 12:02:00,
2013-02-10 07:42:00,8.0,7.0,30.13,WSW,247,8.0,22.0,94,-99.99,,,0.00,,2013-02-10 12:42:00,
2013-02-10 07:52:00,8.0,7.0,30.13,WSW,247,8.0,22.0,94,-99.99,,,0.00,,2013-02-10 12:52:00,
2013-02-10 08:02:00,8.0,7.0,30.13,WSW,247,8.0,22.0,94,-99.99,,,0.00,,2013-02-10 13:02:00,
2013-02-10 10:42:00,13.0,4.0,30.21,SW,225,11.0,26.0,68,-99.99,,,0.00,,2013-02-10 15:42:00,
2013-02-10 10:52:00,13.0,4.0,30.21,SW,225,11.0,26.0,68,-99.99,,,0.00,,2013-02-10 15:52:00,
2013-02-10 11:02:00,13.0,4.0,30.21,SW,225,11.0,26.0,68,-99.99,,,0.00,,2013-02-10 16:02:00,
2013-02-10 11:42:00,16.0,4.0,30.23,West,270,10.0,26.0,58,-99.99,,,0.00,,2013-02-10 16:42:00,
2013-02-10 11:52:00,16.0,4.0,30.23,West,270,10.0,26.0,58,-99.99,,,0.00,,2013-02-10 16:52:00,
2013-02-10 12:02:00,16.0,4.0,30.23,West,270,10.0,26.0,58,-99.99,,,0.00,,2013-02-10 17:02:00,
2013-02-10 12:42:00,21.0,4.0,30.22,SW,225,8.0,26.0,46,-99.99,,,0.00,,2013-02-10 17:42:00,
2013-02-10 12:53:00,21.0,4.0,30.22,SW,225,8.0,26.0,46,-99.99,,,0.00,,2013-02-10 17:53:00,
2013-02-10 13:02:00,21.0,4.0,30.22,SW,225,8.0,26.0,46,-99.99,,,0.00,,2013-02-10 18:02:00,
2013-02-10 13:42:00,24.0,3.0,30.21,WSW,247,13.0,24.0,40,-99.99,,,0.00,,2013-02-10 18:42:00,
2013-02-10 13:52:00,24.0,3.0,30.21,WSW,247,13.0,24.0,40,-99.99,,,0.00,,2013-02-10 18:52:00,
2013-02-10 14:02:00,24.0,3.0,30.21,WSW,247,13.0,24.0,40,-99.99,,,0.00,,2013-02-10 19:02:00,
2013-02-10 14:43:00,25.0,2.0,30.20,WSW,247,10.0,18.0,37,-99.99,,,0.00,,2013-02-10 19:43:00,
2013-02-10 14:52:00,25.0,2.0,30.20,WSW,247,10.0,18.0,37,-99.99,,,0.00,,2013-02-10 19:52:00,
2013-02-10 15:02:00,25.0,2.0,30.20,WSW,247,10.0,18.0,37,-99.99,,,0.00,,2013-02-10 20:02:00,
2013-02-10 15:42:00,26.0,1.0,30.20,WSW,247,9.0,16.0,33,-99.99,,,0.00,,2013-02-10 20:42:00,
2013-02-10 15:52:00,26.0,1.0,30.20,WSW,247,9.0,16.0,33,-99.99,,,0.00,,2013-02-10 20:52:00,
2013-02-10 16:02:00,26.0,1.0,30.20,WSW,247,9.0,16.0,33,-99.99,,,0.00,,2013-02-10 21:02:00,
2013-02-10 16:42:00,24.0,0.0,30.20,SW,225,10.0,16.0,35,-99.99,,,0.00,,2013-02-10 21:42:00,
2013-02-10 16:52:00,24.0,0.0,30.20,SW,225,10.0,16.0,35,-99.99,,,0.00,,2013-02-10 21:52:00,
2013-02-10 17:02:00,24.0,0.0,30.20,SW,225,10.0,16.0,35,-99.99,,,0.00,,2013-02-10 22:02:00,
2013-02-10 17:42:00,21.0,1.0,30.20,WSW,247,3.0,15.0,40,-99.99,,,0.00,,2013-02-10 22:42:00,
2013-02-10 17:53:00,21.0,1.0,30.20,WSW,247,3.0,15.0,40,-99.99,,,0.00,,2013-02-10 22:53:00,
2013-02-10 18:02:00,21.0,1.0,30.20,WSW,247,3.0,15.0,40,-99.99,,,0.00,,2013-02-10 23:02:00,
2013-02-10 18:42:00,18.0,1.0,30.22,South,180,1.0,10.0,47,-99.99,,,0.00,,2013-02-10 23:42:00,
2013-02-10 18:52:00,18.0,1.0,30.22,South,180,1.0,10.0,47,-99.99,,,0.00,,2013-02-10 23:52:00,
2013-02-10 19:02:00,18.0,1.0,30.22,South,180,1.0,10.0,47,-99.99,,,0.00,,2013-02-11 00:02:00,
2013-02-10 19:42:00,9.0,2.0,30.23,WNW,292,0.0,5.0,72,-99.99,,,0.00,,2013-02-11 00:42:00,
2013-02-10 19:52:00,9.0,2.0,30.23,WNW,292,0.0,5.0,72,-99.99,,,0.00,,2013-02-11 00:52:00,
2013-02-10 21:42:00,2.0,2.0,30.22,East,90,1.0,4.0,100,-99.99,,,0.00,,2013-02-11 02:42:00,
2013-02-10 21:52:00,2.0,2.0,30.22,East,90,1.0,4.0,100,-99.99,,,0.00,,2013-02-11 02:52:00,
2013-02-10 22:42:00,-2.0,-2.0,30.21,ESE,112,0.0,6.0,100,-99.99,,,0.00,,2013-02-11 03:42:00,
2013-02-10 22:52:00,-2.0,-2.0,30.21,ESE,112,0.0,6.0,100,-99.99,,,0.00,,2013-02-11 03:52:00,
2013-02-10 23:42:00,-5.0,-5.0,30.19,ESE,112,0.0,4.0,100,-99.99,,,0.00,,2013-02-11 04:42:00,
2013-02-10 23:52:00,-5.0,-5.0,30.19,ESE,112,0.0,4.0,100,-99.99,,,0.00,,2013-02-11 04:52:00,